sensor_id;sensor_type;location;lat;lon;timestamp;P1;durP1;ratioP1;P2;durP2;ratioP2
67500;SDS011;54349;52.528;19.760;2023-03-17T00:00:44;20.50;;;12.60;;
67500;SDS011;54349;52.528;19.760;2023-03-17T00:03:24;22.10;;;12.80;;
67500;SDS011;54349;52.528;19.760;2023-03-17T00:05:55;21.20;;;12.00;;
67500;SDS011;54349;52.528;19.760;2023-03-17T00:08:27;22.60;;;12.70;;
67500;SDS011;54349;52.528;19.760;2023-03-17T00:10:58;20.10;;;11.80;;
67500;SDS011;54349;52.528;19.760;2023-03-17T00:13:27;22.20;;;12.90;;
67500;SDS011;54349;52.528;19.760;2023-03-17T00:16:00;22.10;;;12.00;;
67500;SDS011;54349;52.528;19.760;2023-03-17T00:18:29;22.30;;;11.80;;
67500;SDS011;54349;52.528;19.760;2023-03-17T00:21:00;22.00;;;11.60;;
67500;SDS011;54349;52.528;19.760;2023-03-17T00:23:29;22.00;;;12.30;;
67500;SDS011;54349;52.528;19.760;2023-03-17T00:25:57;20.80;;;12.00;;
67500;SDS011;54349;52.528;19.760;2023-03-17T00:28:26;20.50;;;11.60;;
67500;SDS011;54349;52.528;19.760;2023-03-17T00:30:57;23.90;;;12.70;;
67500;SDS011;54349;52.528;19.760;2023-03-17T00:33:29;19.80;;;11.50;;
67500;SDS011;54349;52.528;19.760;2023-03-17T00:36:01;21.40;;;11.90;;
67500;SDS011;54349;52.528;19.760;2023-03-17T00:38:31;20.40;;;11.60;;
67500;SDS011;54349;52.528;19.760;2023-03-17T00:41:00;20.90;;;11.00;;
67500;SDS011;54349;52.528;19.760;2023-03-17T00:43:28;20.30;;;11.50;;
67500;SDS011;54349;52.528;19.760;2023-03-17T00:45:58;18.20;;;10.90;;
67500;SDS011;54349;52.528;19.760;2023-03-17T00:48:28;19.00;;;11.10;;
67500;SDS011;54349;52.528;19.760;2023-03-17T00:50:57;18.60;;;11.00;;
67500;SDS011;54349;52.528;19.760;2023-03-17T00:53:29;19.60;;;11.40;;
67500;SDS011;54349;52.528;19.760;2023-03-17T00:55:59;19.70;;;11.10;;
67500;SDS011;54349;52.528;19.760;2023-03-17T00:58:30;19.90;;;11.60;;
67500;SDS011;54349;52.528;19.760;2023-03-17T01:01:01;18.20;;;11.40;;
67500;SDS011;54349;52.528;19.760;2023-03-17T01:03:29;21.30;;;11.70;;
67500;SDS011;54349;52.528;19.760;2023-03-17T01:06:01;19.30;;;11.40;;
67500;SDS011;54349;52.528;19.760;2023-03-17T01:08:31;20.20;;;11.40;;
67500;SDS011;54349;52.528;19.760;2023-03-17T01:10:59;19.80;;;11.10;;
67500;SDS011;54349;52.528;19.760;2023-03-17T01:13:28;21.60;;;11.20;;
67500;SDS011;54349;52.528;19.760;2023-03-17T01:15:57;20.40;;;11.80;;
67500;SDS011;54349;52.528;19.760;2023-03-17T01:18:25;21.30;;;10.90;;
67500;SDS011;54349;52.528;19.760;2023-03-17T01:20:54;19.50;;;10.90;;
67500;SDS011;54349;52.528;19.760;2023-03-17T01:23:23;22.00;;;11.60;;
67500;SDS011;54349;52.528;19.760;2023-03-17T01:25:54;21.50;;;11.70;;
67500;SDS011;54349;52.528;19.760;2023-03-17T01:28:24;21.40;;;12.00;;
67500;SDS011;54349;52.528;19.760;2023-03-17T01:30:52;20.10;;;11.50;;
67500;SDS011;54349;52.528;19.760;2023-03-17T01:33:21;20.50;;;11.30;;
67500;SDS011;54349;52.528;19.760;2023-03-17T01:35:50;20.50;;;11.40;;
67500;SDS011;54349;52.528;19.760;2023-03-17T01:38:19;20.50;;;11.70;;
67500;SDS011;54349;52.528;19.760;2023-03-17T01:40:49;22.70;;;11.40;;
67500;SDS011;54349;52.528;19.760;2023-03-17T01:43:20;18.70;;;11.40;;
67500;SDS011;54349;52.528;19.760;2023-03-17T01:51:41;20.90;;;11.00;;
67500;SDS011;54349;52.528;19.760;2023-03-17T01:54:38;20.90;;;11.80;;
67500;SDS011;54349;52.528;19.760;2023-03-17T02:00:04;20.40;;;11.40;;
67500;SDS011;54349;52.528;19.760;2023-03-17T02:02:48;19.60;;;11.20;;
67500;SDS011;54349;52.528;19.760;2023-03-17T02:05:22;21.00;;;11.60;;
67500;SDS011;54349;52.528;19.760;2023-03-17T02:07:54;18.80;;;11.30;;
67500;SDS011;54349;52.528;19.760;2023-03-17T02:10:28;18.50;;;11.00;;
67500;SDS011;54349;52.528;19.760;2023-03-17T02:12:59;18.70;;;11.50;;
67500;SDS011;54349;52.528;19.760;2023-03-17T02:15:43;19.00;;;11.10;;
67500;SDS011;54349;52.528;19.760;2023-03-17T02:18:19;18.40;;;10.20;;
67500;SDS011;54349;52.528;19.760;2023-03-17T02:23:42;19.10;;;10.60;;
67500;SDS011;54349;52.528;19.760;2023-03-17T02:26:10;18.80;;;10.80;;
67500;SDS011;54349;52.528;19.760;2023-03-17T02:28:41;19.30;;;10.30;;
67500;SDS011;54349;52.528;19.760;2023-03-17T02:31:13;19.20;;;10.70;;
67500;SDS011;54349;52.528;19.760;2023-03-17T02:33:43;19.10;;;10.30;;
67500;SDS011;54349;52.528;19.760;2023-03-17T02:36:12;19.40;;;11.00;;
67500;SDS011;54349;52.528;19.760;2023-03-17T02:38:43;17.30;;;10.10;;
67500;SDS011;54349;52.528;19.760;2023-03-17T02:41:11;16.80;;;9.40;;
67500;SDS011;54349;52.528;19.760;2023-03-17T02:43:40;18.80;;;10.40;;
67500;SDS011;54349;52.528;19.760;2023-03-17T02:46:09;17.20;;;10.40;;
67500;SDS011;54349;52.528;19.760;2023-03-17T02:48:38;16.70;;;10.00;;
67500;SDS011;54349;52.528;19.760;2023-03-17T02:51:07;16.80;;;9.50;;
67500;SDS011;54349;52.528;19.760;2023-03-17T02:53:36;16.10;;;9.60;;
67500;SDS011;54349;52.528;19.760;2023-03-17T02:56:05;17.00;;;9.40;;
67500;SDS011;54349;52.528;19.760;2023-03-17T02:58:35;16.20;;;9.50;;
67500;SDS011;54349;52.528;19.760;2023-03-17T03:01:03;14.90;;;9.20;;
67500;SDS011;54349;52.528;19.760;2023-03-17T03:03:32;15.80;;;9.30;;
67500;SDS011;54349;52.528;19.760;2023-03-17T03:06:01;14.50;;;8.90;;
67500;SDS011;54349;52.528;19.760;2023-03-17T03:08:30;15.50;;;9.20;;
67500;SDS011;54349;52.528;19.760;2023-03-17T03:10:59;14.80;;;8.80;;
67500;SDS011;54349;52.528;19.760;2023-03-17T03:13:29;14.80;;;8.80;;
67500;SDS011;54349;52.528;19.760;2023-03-17T03:15:58;15.90;;;8.70;;
67500;SDS011;54349;52.528;19.760;2023-03-17T03:18:27;13.70;;;8.70;;
67500;SDS011;54349;52.528;19.760;2023-03-17T03:20:55;16.50;;;8.30;;
67500;SDS011;54349;52.528;19.760;2023-03-17T03:23:24;14.40;;;8.80;;
67500;SDS011;54349;52.528;19.760;2023-03-17T03:25:52;12.70;;;7.80;;
67500;SDS011;54349;52.528;19.760;2023-03-17T03:28:21;15.30;;;8.30;;
67500;SDS011;54349;52.528;19.760;2023-03-17T03:30:50;15.50;;;8.40;;
67500;SDS011;54349;52.528;19.760;2023-03-17T03:33:18;14.40;;;8.50;;
67500;SDS011;54349;52.528;19.760;2023-03-17T03:35:47;14.30;;;8.20;;
67500;SDS011;54349;52.528;19.760;2023-03-17T03:38:16;14.50;;;8.70;;
67500;SDS011;54349;52.528;19.760;2023-03-17T03:40:45;14.20;;;7.70;;
67500;SDS011;54349;52.528;19.760;2023-03-17T03:43:14;14.40;;;8.30;;
67500;SDS011;54349;52.528;19.760;2023-03-17T03:45:51;14.60;;;8.30;;
67500;SDS011;54349;52.528;19.760;2023-03-17T03:48:21;13.50;;;8.20;;
67500;SDS011;54349;52.528;19.760;2023-03-17T03:50:54;13.80;;;7.90;;
67500;SDS011;54349;52.528;19.760;2023-03-17T03:53:24;13.90;;;8.40;;
67500;SDS011;54349;52.528;19.760;2023-03-17T03:55:53;12.50;;;7.70;;
67500;SDS011;54349;52.528;19.760;2023-03-17T03:58:22;13.60;;;7.70;;
67500;SDS011;54349;52.528;19.760;2023-03-17T04:00:50;12.90;;;8.10;;
67500;SDS011;54349;52.528;19.760;2023-03-17T04:03:18;14.30;;;8.50;;
67500;SDS011;54349;52.528;19.760;2023-03-17T04:05:46;14.40;;;8.50;;
67500;SDS011;54349;52.528;19.760;2023-03-17T04:08:14;13.90;;;8.10;;
67500;SDS011;54349;52.528;19.760;2023-03-17T04:10:43;12.30;;;7.70;;
67500;SDS011;54349;52.528;19.760;2023-03-17T04:13:11;13.80;;;8.30;;
67500;SDS011;54349;52.528;19.760;2023-03-17T04:15:40;13.50;;;8.00;;
67500;SDS011;54349;52.528;19.760;2023-03-17T04:18:09;14.00;;;7.90;;
67500;SDS011;54349;52.528;19.760;2023-03-17T04:20:38;14.00;;;8.10;;
67500;SDS011;54349;52.528;19.760;2023-03-17T04:23:06;13.50;;;8.00;;
67500;SDS011;54349;52.528;19.760;2023-03-17T04:25:34;13.60;;;8.30;;
67500;SDS011;54349;52.528;19.760;2023-03-17T04:28:03;12.00;;;7.30;;
67500;SDS011;54349;52.528;19.760;2023-03-17T04:30:32;12.70;;;7.60;;
67500;SDS011;54349;52.528;19.760;2023-03-17T04:33:00;12.90;;;8.00;;
67500;SDS011;54349;52.528;19.760;2023-03-17T04:35:28;13.40;;;8.10;;
67500;SDS011;54349;52.528;19.760;2023-03-17T04:37:57;12.70;;;7.70;;
67500;SDS011;54349;52.528;19.760;2023-03-17T04:40:25;12.90;;;7.60;;
67500;SDS011;54349;52.528;19.760;2023-03-17T04:42:53;12.70;;;8.00;;
67500;SDS011;54349;52.528;19.760;2023-03-17T04:45:21;14.00;;;8.20;;
67500;SDS011;54349;52.528;19.760;2023-03-17T04:47:50;13.00;;;8.10;;
67500;SDS011;54349;52.528;19.760;2023-03-17T04:50:20;13.00;;;7.40;;
67500;SDS011;54349;52.528;19.760;2023-03-17T04:52:48;15.00;;;8.30;;
67500;SDS011;54349;52.528;19.760;2023-03-17T04:55:17;15.00;;;8.50;;
67500;SDS011;54349;52.528;19.760;2023-03-17T04:57:45;14.50;;;8.20;;
67500;SDS011;54349;52.528;19.760;2023-03-17T05:00:13;12.10;;;7.20;;
67500;SDS011;54349;52.528;19.760;2023-03-17T05:02:42;11.60;;;7.20;;
67500;SDS011;54349;52.528;19.760;2023-03-17T05:05:11;12.10;;;7.40;;
67500;SDS011;54349;52.528;19.760;2023-03-17T05:07:39;12.10;;;7.30;;
67500;SDS011;54349;52.528;19.760;2023-03-17T05:10:09;13.80;;;7.90;;
67500;SDS011;54349;52.528;19.760;2023-03-17T05:12:39;13.50;;;7.70;;
67500;SDS011;54349;52.528;19.760;2023-03-17T05:15:07;12.10;;;7.30;;
67500;SDS011;54349;52.528;19.760;2023-03-17T05:17:36;12.50;;;7.40;;
67500;SDS011;54349;52.528;19.760;2023-03-17T05:20:05;11.90;;;7.50;;
67500;SDS011;54349;52.528;19.760;2023-03-17T05:22:36;11.80;;;7.00;;
67500;SDS011;54349;52.528;19.760;2023-03-17T05:25:04;11.30;;;6.90;;
67500;SDS011;54349;52.528;19.760;2023-03-17T05:27:33;10.80;;;7.00;;
67500;SDS011;54349;52.528;19.760;2023-03-17T05:30:01;12.00;;;7.10;;
67500;SDS011;54349;52.528;19.760;2023-03-17T05:32:30;11.20;;;7.20;;
67500;SDS011;54349;52.528;19.760;2023-03-17T05:34:59;10.50;;;6.90;;
67500;SDS011;54349;52.528;19.760;2023-03-17T05:37:27;12.20;;;7.10;;
67500;SDS011;54349;52.528;19.760;2023-03-17T05:39:55;13.50;;;7.30;;
67500;SDS011;54349;52.528;19.760;2023-03-17T05:42:23;11.10;;;7.20;;
67500;SDS011;54349;52.528;19.760;2023-03-17T05:44:51;12.10;;;7.50;;
67500;SDS011;54349;52.528;19.760;2023-03-17T05:47:19;12.60;;;7.20;;
67500;SDS011;54349;52.528;19.760;2023-03-17T05:49:47;12.10;;;7.20;;
67500;SDS011;54349;52.528;19.760;2023-03-17T05:52:15;11.10;;;7.30;;
67500;SDS011;54349;52.528;19.760;2023-03-17T05:54:43;11.10;;;7.00;;
67500;SDS011;54349;52.528;19.760;2023-03-17T05:57:14;12.20;;;7.60;;
67500;SDS011;54349;52.528;19.760;2023-03-17T05:59:43;12.80;;;7.40;;
67500;SDS011;54349;52.528;19.760;2023-03-17T06:02:12;11.70;;;7.10;;
67500;SDS011;54349;52.528;19.760;2023-03-17T06:04:41;11.90;;;6.90;;
67500;SDS011;54349;52.528;19.760;2023-03-17T06:07:10;12.70;;;7.50;;
67500;SDS011;54349;52.528;19.760;2023-03-17T06:09:38;11.60;;;7.20;;
67500;SDS011;54349;52.528;19.760;2023-03-17T06:12:07;10.80;;;6.90;;
67500;SDS011;54349;52.528;19.760;2023-03-17T06:14:36;12.50;;;7.20;;
67500;SDS011;54349;52.528;19.760;2023-03-17T06:17:04;11.00;;;6.90;;
67500;SDS011;54349;52.528;19.760;2023-03-17T06:19:33;10.80;;;6.90;;
67500;SDS011;54349;52.528;19.760;2023-03-17T06:22:01;11.10;;;7.00;;
67500;SDS011;54349;52.528;19.760;2023-03-17T06:24:29;11.50;;;7.50;;
67500;SDS011;54349;52.528;19.760;2023-03-17T06:26:57;11.70;;;7.20;;
67500;SDS011;54349;52.528;19.760;2023-03-17T06:29:25;10.90;;;6.60;;
67500;SDS011;54349;52.528;19.760;2023-03-17T06:31:53;10.30;;;6.90;;
67500;SDS011;54349;52.528;19.760;2023-03-17T06:34:22;11.70;;;7.20;;
67500;SDS011;54349;52.528;19.760;2023-03-17T06:36:51;12.00;;;6.70;;
67500;SDS011;54349;52.528;19.760;2023-03-17T06:39:19;13.50;;;7.40;;
67500;SDS011;54349;52.528;19.760;2023-03-17T06:41:47;11.60;;;6.80;;
67500;SDS011;54349;52.528;19.760;2023-03-17T06:44:16;12.00;;;7.30;;
67500;SDS011;54349;52.528;19.760;2023-03-17T06:46:44;11.90;;;6.90;;
67500;SDS011;54349;52.528;19.760;2023-03-17T06:49:13;12.30;;;7.10;;
67500;SDS011;54349;52.528;19.760;2023-03-17T06:51:41;11.20;;;7.20;;
67500;SDS011;54349;52.528;19.760;2023-03-17T06:54:09;12.60;;;7.00;;
67500;SDS011;54349;52.528;19.760;2023-03-17T06:56:38;10.40;;;6.60;;
67500;SDS011;54349;52.528;19.760;2023-03-17T06:59:06;12.00;;;7.40;;
67500;SDS011;54349;52.528;19.760;2023-03-17T07:01:34;13.30;;;8.00;;
67500;SDS011;54349;52.528;19.760;2023-03-17T07:04:02;14.90;;;8.80;;
67500;SDS011;54349;52.528;19.760;2023-03-17T07:06:30;15.10;;;9.10;;
67500;SDS011;54349;52.528;19.760;2023-03-17T07:08:58;15.10;;;9.40;;
67500;SDS011;54349;52.528;19.760;2023-03-17T07:11:29;15.70;;;9.60;;
67500;SDS011;54349;52.528;19.760;2023-03-17T07:13:58;16.50;;;10.20;;
67500;SDS011;54349;52.528;19.760;2023-03-17T07:16:26;17.00;;;9.60;;
67500;SDS011;54349;52.528;19.760;2023-03-17T07:18:54;14.50;;;9.70;;
67500;SDS011;54349;52.528;19.760;2023-03-17T07:21:22;16.90;;;9.70;;
67500;SDS011;54349;52.528;19.760;2023-03-17T07:23:51;16.50;;;9.70;;
67500;SDS011;54349;52.528;19.760;2023-03-17T07:26:19;15.80;;;9.70;;
67500;SDS011;54349;52.528;19.760;2023-03-17T07:28:47;15.10;;;9.70;;
67500;SDS011;54349;52.528;19.760;2023-03-17T07:31:15;15.00;;;9.30;;
67500;SDS011;54349;52.528;19.760;2023-03-17T07:33:43;14.80;;;8.90;;
67500;SDS011;54349;52.528;19.760;2023-03-17T07:36:12;15.80;;;9.80;;
67500;SDS011;54349;52.528;19.760;2023-03-17T07:38:40;14.10;;;9.20;;
67500;SDS011;54349;52.528;19.760;2023-03-17T07:41:09;15.00;;;9.10;;
67500;SDS011;54349;52.528;19.760;2023-03-17T07:43:38;17.70;;;9.90;;
67500;SDS011;54349;52.528;19.760;2023-03-17T07:46:06;15.40;;;9.90;;
67500;SDS011;54349;52.528;19.760;2023-03-17T07:48:35;16.00;;;9.50;;
67500;SDS011;54349;52.528;19.760;2023-03-17T07:51:12;15.40;;;9.10;;
67500;SDS011;54349;52.528;19.760;2023-03-17T07:53:46;15.60;;;8.70;;
67500;SDS011;54349;52.528;19.760;2023-03-17T07:56:16;14.10;;;9.00;;
67500;SDS011;54349;52.528;19.760;2023-03-17T07:58:44;14.90;;;8.90;;
67500;SDS011;54349;52.528;19.760;2023-03-17T08:01:13;16.30;;;9.50;;
67500;SDS011;54349;52.528;19.760;2023-03-17T08:03:42;15.90;;;9.30;;
67500;SDS011;54349;52.528;19.760;2023-03-17T08:06:10;13.80;;;8.70;;
67500;SDS011;54349;52.528;19.760;2023-03-17T08:08:38;15.60;;;9.60;;
67500;SDS011;54349;52.528;19.760;2023-03-17T08:11:08;16.10;;;8.80;;
67500;SDS011;54349;52.528;19.760;2023-03-17T08:13:37;15.90;;;9.40;;
67500;SDS011;54349;52.528;19.760;2023-03-17T08:16:05;15.90;;;9.10;;
67500;SDS011;54349;52.528;19.760;2023-03-17T08:18:34;16.50;;;9.10;;
67500;SDS011;54349;52.528;19.760;2023-03-17T08:21:04;15.30;;;9.40;;
67500;SDS011;54349;52.528;19.760;2023-03-17T08:23:33;13.90;;;8.60;;
67500;SDS011;54349;52.528;19.760;2023-03-17T08:26:02;14.80;;;8.50;;
67500;SDS011;54349;52.528;19.760;2023-03-17T08:28:31;14.10;;;8.60;;
67500;SDS011;54349;52.528;19.760;2023-03-17T08:31:14;14.20;;;8.40;;
67500;SDS011;54349;52.528;19.760;2023-03-17T08:33:46;15.00;;;9.10;;
67500;SDS011;54349;52.528;19.760;2023-03-17T08:36:17;14.90;;;8.80;;
67500;SDS011;54349;52.528;19.760;2023-03-17T08:38:47;15.40;;;8.30;;
67500;SDS011;54349;52.528;19.760;2023-03-17T08:41:19;14.60;;;7.70;;
67500;SDS011;54349;52.528;19.760;2023-03-17T08:43:49;16.60;;;9.10;;
67500;SDS011;54349;52.528;19.760;2023-03-17T08:46:19;13.40;;;8.40;;
67500;SDS011;54349;52.528;19.760;2023-03-17T08:48:50;14.20;;;8.40;;
67500;SDS011;54349;52.528;19.760;2023-03-17T08:51:23;13.40;;;8.00;;
67500;SDS011;54349;52.528;19.760;2023-03-17T08:53:54;13.10;;;7.80;;
67500;SDS011;54349;52.528;19.760;2023-03-17T08:56:23;13.50;;;8.00;;
67500;SDS011;54349;52.528;19.760;2023-03-17T08:58:52;14.60;;;8.20;;
67500;SDS011;54349;52.528;19.760;2023-03-17T09:01:22;14.50;;;8.10;;
67500;SDS011;54349;52.528;19.760;2023-03-17T09:03:53;12.50;;;7.50;;
67500;SDS011;54349;52.528;19.760;2023-03-17T09:06:22;14.30;;;8.30;;
67500;SDS011;54349;52.528;19.760;2023-03-17T09:08:51;14.10;;;7.70;;
67500;SDS011;54349;52.528;19.760;2023-03-17T09:11:27;12.70;;;7.90;;
67500;SDS011;54349;52.528;19.760;2023-03-17T09:13:56;13.30;;;8.20;;
67500;SDS011;54349;52.528;19.760;2023-03-17T09:16:25;14.70;;;7.80;;
67500;SDS011;54349;52.528;19.760;2023-03-17T09:18:56;12.70;;;7.60;;
67500;SDS011;54349;52.528;19.760;2023-03-17T09:21:24;12.70;;;7.80;;
67500;SDS011;54349;52.528;19.760;2023-03-17T09:23:53;11.60;;;7.00;;
67500;SDS011;54349;52.528;19.760;2023-03-17T09:26:21;13.00;;;7.80;;
67500;SDS011;54349;52.528;19.760;2023-03-17T09:28:52;11.60;;;7.10;;
67500;SDS011;54349;52.528;19.760;2023-03-17T09:31:20;14.00;;;7.50;;
67500;SDS011;54349;52.528;19.760;2023-03-17T09:33:49;14.00;;;7.30;;
67500;SDS011;54349;52.528;19.760;2023-03-17T09:36:19;14.60;;;7.80;;
67500;SDS011;54349;52.528;19.760;2023-03-17T09:38:48;11.20;;;7.00;;
67500;SDS011;54349;52.528;19.760;2023-03-17T09:49:36;11.40;;;7.50;;
67500;SDS011;54349;52.528;19.760;2023-03-17T09:52:23;11.50;;;6.90;;
67500;SDS011;54349;52.528;19.760;2023-03-17T09:54:57;11.60;;;7.40;;
67500;SDS011;54349;52.528;19.760;2023-03-17T10:00:19;11.70;;;7.00;;
67500;SDS011;54349;52.528;19.760;2023-03-17T10:02:57;10.50;;;6.40;;
67500;SDS011;54349;52.528;19.760;2023-03-17T10:05:28;12.70;;;7.70;;
67500;SDS011;54349;52.528;19.760;2023-03-17T10:08:13;11.20;;;7.10;;
67500;SDS011;54349;52.528;19.760;2023-03-17T10:16:49;11.30;;;6.50;;
67500;SDS011;54349;52.528;19.760;2023-03-17T10:19:46;10.30;;;6.40;;
67500;SDS011;54349;52.528;19.760;2023-03-17T10:22:28;11.20;;;6.60;;
67500;SDS011;54349;52.528;19.760;2023-03-17T10:25:15;10.70;;;6.30;;
67500;SDS011;54349;52.528;19.760;2023-03-17T10:33:48;9.60;;;5.70;;
67500;SDS011;54349;52.528;19.760;2023-03-17T10:36:36;10.60;;;5.90;;
67500;SDS011;54349;52.528;19.760;2023-03-17T10:39:10;10.30;;;6.10;;
67500;SDS011;54349;52.528;19.760;2023-03-17T10:41:54;12.00;;;6.40;;
67500;SDS011;54349;52.528;19.760;2023-03-17T10:56:27;9.30;;;5.60;;
67500;SDS011;54349;52.528;19.760;2023-03-17T10:59:07;8.70;;;5.40;;
67500;SDS011;54349;52.528;19.760;2023-03-17T11:01:52;10.50;;;6.20;;
67500;SDS011;54349;52.528;19.760;2023-03-17T11:04:38;9.90;;;5.50;;
67500;SDS011;54349;52.528;19.760;2023-03-17T11:07:18;9.90;;;5.80;;
67500;SDS011;54349;52.528;19.760;2023-03-17T11:09:57;9.50;;;5.70;;
67500;SDS011;54349;52.528;19.760;2023-03-17T11:12:38;10.00;;;5.70;;
67500;SDS011;54349;52.528;19.760;2023-03-17T11:15:13;9.40;;;5.40;;
67500;SDS011;54349;52.528;19.760;2023-03-17T11:17:54;9.40;;;5.50;;
67500;SDS011;54349;52.528;19.760;2023-03-17T11:20:48;9.40;;;5.10;;
67500;SDS011;54349;52.528;19.760;2023-03-17T11:28:38;9.60;;;5.50;;
67500;SDS011;54349;52.528;19.760;2023-03-17T11:31:27;9.70;;;5.50;;
67500;SDS011;54349;52.528;19.760;2023-03-17T11:34:07;8.80;;;5.40;;
67500;SDS011;54349;52.528;19.760;2023-03-17T11:36:48;8.50;;;5.20;;
67500;SDS011;54349;52.528;19.760;2023-03-17T11:39:48;10.00;;;5.30;;
67500;SDS011;54349;52.528;19.760;2023-03-17T11:42:30;8.30;;;5.00;;
67500;SDS011;54349;52.528;19.760;2023-03-17T11:48:16;9.40;;;5.20;;
67500;SDS011;54349;52.528;19.760;2023-03-17T11:53:41;8.80;;;5.30;;
67500;SDS011;54349;52.528;19.760;2023-03-17T11:56:35;9.70;;;5.30;;
67500;SDS011;54349;52.528;19.760;2023-03-17T11:59:15;8.20;;;4.90;;
67500;SDS011;54349;52.528;19.760;2023-03-17T12:01:57;9.30;;;5.00;;
67500;SDS011;54349;52.528;19.760;2023-03-17T12:04:38;10.30;;;5.10;;
67500;SDS011;54349;52.528;19.760;2023-03-17T12:07:24;10.20;;;5.20;;
67500;SDS011;54349;52.528;19.760;2023-03-17T12:10:13;9.70;;;5.20;;
67500;SDS011;54349;52.528;19.760;2023-03-17T12:12:49;7.60;;;4.60;;
67500;SDS011;54349;52.528;19.760;2023-03-17T12:15:37;8.80;;;4.80;;
67500;SDS011;54349;52.528;19.760;2023-03-17T12:18:25;8.50;;;4.80;;
67500;SDS011;54349;52.528;19.760;2023-03-17T12:23:59;8.50;;;4.80;;
67500;SDS011;54349;52.528;19.760;2023-03-17T12:27:20;8.80;;;5.30;;
67500;SDS011;54349;52.528;19.760;2023-03-17T12:32:38;92.70;;;30.10;;
67500;SDS011;54349;52.528;19.760;2023-03-17T12:37:45;238.20;;;66.30;;
67500;SDS011;54349;52.528;19.760;2023-03-17T12:40:16;134.20;;;39.30;;
67500;SDS011;54349;52.528;19.760;2023-03-17T12:46:03;73.60;;;24.40;;
67500;SDS011;54349;52.528;19.760;2023-03-17T12:48:49;70.60;;;23.10;;
67500;SDS011;54349;52.528;19.760;2023-03-17T12:54:45;43.10;;;16.50;;
67500;SDS011;54349;52.528;19.760;2023-03-17T13:00:27;35.90;;;13.40;;
67500;SDS011;54349;52.528;19.760;2023-03-17T13:05:53;26.50;;;10.60;;
67500;SDS011;54349;52.528;19.760;2023-03-17T13:08:31;26.80;;;10.20;;
67500;SDS011;54349;52.528;19.760;2023-03-17T13:11:27;26.00;;;10.30;;
67500;SDS011;54349;52.528;19.760;2023-03-17T13:14:46;20.70;;;9.30;;
67500;SDS011;54349;52.528;19.760;2023-03-17T13:25:14;22.80;;;8.70;;
67500;SDS011;54349;52.528;19.760;2023-03-17T13:30:45;19.90;;;8.50;;
67500;SDS011;54349;52.528;19.760;2023-03-17T13:33:22;20.10;;;7.70;;
67500;SDS011;54349;52.528;19.760;2023-03-17T13:42:30;15.60;;;7.60;;
67500;SDS011;54349;52.528;19.760;2023-03-17T13:45:35;17.20;;;7.60;;
67500;SDS011;54349;52.528;19.760;2023-03-17T13:48:34;16.00;;;7.10;;
67500;SDS011;54349;52.528;19.760;2023-03-17T13:56:49;14.20;;;6.10;;
67500;SDS011;54349;52.528;19.760;2023-03-17T13:59:28;15.80;;;6.30;;
67500;SDS011;54349;52.528;19.760;2023-03-17T14:02:13;13.70;;;6.60;;
67500;SDS011;54349;52.528;19.760;2023-03-17T14:04:54;14.60;;;6.30;;
67500;SDS011;54349;52.528;19.760;2023-03-17T14:07:47;12.20;;;5.70;;
67500;SDS011;54349;52.528;19.760;2023-03-17T14:10:24;14.40;;;6.00;;
67500;SDS011;54349;52.528;19.760;2023-03-17T14:16:18;12.30;;;5.80;;
67500;SDS011;54349;52.528;19.760;2023-03-17T14:18:59;12.30;;;5.70;;
67500;SDS011;54349;52.528;19.760;2023-03-17T14:21:38;12.00;;;5.60;;
67500;SDS011;54349;52.528;19.760;2023-03-17T14:24:19;9.70;;;4.50;;
67500;SDS011;54349;52.528;19.760;2023-03-17T14:26:49;11.80;;;5.20;;
67500;SDS011;54349;52.528;19.760;2023-03-17T14:29:28;12.00;;;5.30;;
67500;SDS011;54349;52.528;19.760;2023-03-17T14:32:11;11.60;;;5.20;;
67500;SDS011;54349;52.528;19.760;2023-03-17T14:34:47;10.10;;;4.80;;
67500;SDS011;54349;52.528;19.760;2023-03-17T14:37:23;10.80;;;4.90;;
67500;SDS011;54349;52.528;19.760;2023-03-17T14:39:54;9.10;;;4.90;;
67500;SDS011;54349;52.528;19.760;2023-03-17T14:42:30;8.80;;;4.60;;
67500;SDS011;54349;52.528;19.760;2023-03-17T14:47:38;11.00;;;4.70;;
67500;SDS011;54349;52.528;19.760;2023-03-17T14:50:30;9.00;;;4.40;;
67500;SDS011;54349;52.528;19.760;2023-03-17T14:52:59;7.80;;;4.00;;
67500;SDS011;54349;52.528;19.760;2023-03-17T14:55:34;8.70;;;4.00;;
67500;SDS011;54349;52.528;19.760;2023-03-17T14:58:21;8.80;;;3.70;;
67500;SDS011;54349;52.528;19.760;2023-03-17T15:03:38;7.70;;;4.00;;
67500;SDS011;54349;52.528;19.760;2023-03-17T15:06:26;7.70;;;3.90;;
67500;SDS011;54349;52.528;19.760;2023-03-17T15:09:16;7.80;;;3.70;;
67500;SDS011;54349;52.528;19.760;2023-03-17T15:11:47;7.70;;;4.00;;
67500;SDS011;54349;52.528;19.760;2023-03-17T15:14:35;9.20;;;4.00;;
67500;SDS011;54349;52.528;19.760;2023-03-17T15:17:14;8.40;;;4.00;;
67500;SDS011;54349;52.528;19.760;2023-03-17T15:19:51;9.00;;;3.70;;
67500;SDS011;54349;52.528;19.760;2023-03-17T15:22:22;7.30;;;3.50;;
67500;SDS011;54349;52.528;19.760;2023-03-17T15:25:17;7.10;;;3.60;;
67500;SDS011;54349;52.528;19.760;2023-03-17T15:27:50;6.80;;;3.20;;
67500;SDS011;54349;52.528;19.760;2023-03-17T15:30:19;6.90;;;3.20;;
67500;SDS011;54349;52.528;19.760;2023-03-17T15:32:56;7.30;;;3.60;;
67500;SDS011;54349;52.528;19.760;2023-03-17T15:35:27;6.70;;;3.50;;
67500;SDS011;54349;52.528;19.760;2023-03-17T15:37:56;7.30;;;3.60;;
67500;SDS011;54349;52.528;19.760;2023-03-17T15:40:24;7.30;;;3.30;;
67500;SDS011;54349;52.528;19.760;2023-03-17T15:42:52;7.40;;;3.40;;
67500;SDS011;54349;52.528;19.760;2023-03-17T15:45:23;6.10;;;3.20;;
67500;SDS011;54349;52.528;19.760;2023-03-17T15:47:52;6.70;;;3.30;;
67500;SDS011;54349;52.528;19.760;2023-03-17T15:50:25;6.70;;;3.20;;
67500;SDS011;54349;52.528;19.760;2023-03-17T15:52:57;6.50;;;3.20;;
67500;SDS011;54349;52.528;19.760;2023-03-17T15:55:27;5.80;;;3.20;;
67500;SDS011;54349;52.528;19.760;2023-03-17T15:57:57;6.70;;;3.50;;
67500;SDS011;54349;52.528;19.760;2023-03-17T16:00:27;7.10;;;2.90;;
67500;SDS011;54349;52.528;19.760;2023-03-17T16:02:58;7.30;;;3.20;;
67500;SDS011;54349;52.528;19.760;2023-03-17T16:05:32;5.70;;;3.00;;
67500;SDS011;54349;52.528;19.760;2023-03-17T16:08:02;6.50;;;3.40;;
67500;SDS011;54349;52.528;19.760;2023-03-17T16:10:31;6.70;;;3.40;;
67500;SDS011;54349;52.528;19.760;2023-03-17T16:13:00;5.90;;;2.90;;
67500;SDS011;54349;52.528;19.760;2023-03-17T16:15:30;5.80;;;3.00;;
67500;SDS011;54349;52.528;19.760;2023-03-17T16:18:04;7.10;;;3.30;;
67500;SDS011;54349;52.528;19.760;2023-03-17T16:20:39;6.70;;;3.30;;
67500;SDS011;54349;52.528;19.760;2023-03-17T16:25:54;6.20;;;3.10;;
67500;SDS011;54349;52.528;19.760;2023-03-17T16:28:41;6.50;;;3.60;;
67500;SDS011;54349;52.528;19.760;2023-03-17T16:31:20;6.70;;;3.20;;
67500;SDS011;54349;52.528;19.760;2023-03-17T16:33:52;6.70;;;3.10;;
67500;SDS011;54349;52.528;19.760;2023-03-17T16:36:22;6.60;;;3.30;;
67500;SDS011;54349;52.528;19.760;2023-03-17T16:38:51;5.10;;;2.80;;
67500;SDS011;54349;52.528;19.760;2023-03-17T16:41:22;6.20;;;3.30;;
67500;SDS011;54349;52.528;19.760;2023-03-17T16:43:58;6.40;;;3.00;;
67500;SDS011;54349;52.528;19.760;2023-03-17T16:46:32;6.00;;;3.10;;